sensor_id;sensor_type;location;lat;lon;timestamp;pressure;altitude;pressure_sealevel;temperature;humidity
77011;BME280;65945;53.148;17.956;2023-10-09T00:01:26;101883.27;;;1.82;74.84
77011;BME280;65945;53.148;17.956;2023-10-09T00:03:53;101883.48;;;1.80;75.01
77011;BME280;65945;53.148;17.956;2023-10-09T00:06:23;101880.57;;;1.77;75.07
77011;BME280;65945;53.148;17.956;2023-10-09T00:08:58;101870.45;;;1.75;74.85
77011;BME280;65945;53.148;17.956;2023-10-09T00:11:38;101854.46;;;1.73;75.10
77011;BME280;65945;53.148;17.956;2023-10-09T00:14:08;101851.71;;;1.71;75.11
77011;BME280;65945;53.148;17.956;2023-10-09T00:16:34;101853.29;;;1.70;75.02
77011;BME280;65945;53.148;17.956;2023-10-09T00:19:03;101850.55;;;1.70;75.39
77011;BME280;65945;53.148;17.956;2023-10-09T00:21:59;101857.98;;;1.67;75.42
77011;BME280;65945;53.148;17.956;2023-10-09T00:24:37;101849.59;;;1.64;75.79
77011;BME280;65945;53.148;17.956;2023-10-09T00:27:11;101835.60;;;1.61;76.02
77011;BME280;65945;53.148;17.956;2023-10-09T00:29:39;101831.02;;;1.63;75.91
77011;BME280;65945;53.148;17.956;2023-10-09T00:32:12;101828.70;;;1.65;75.94
77011;BME280;65945;53.148;17.956;2023-10-09T00:34:40;101813.57;;;1.66;75.96
77011;BME280;65945;53.148;17.956;2023-10-09T00:37:11;101815.90;;;1.68;75.98
77011;BME280;65945;53.148;17.956;2023-10-09T00:39:52;101826.39;;;1.68;76.12
77011;BME280;65945;53.148;17.956;2023-10-09T00:42:24;101838.16;;;1.68;76.16
77011;BME280;65945;53.148;17.956;2023-10-09T00:45:03;101832.52;;;1.67;76.15
77011;BME280;65945;53.148;17.956;2023-10-09T00:47:31;101832.82;;;1.67;76.14
77011;BME280;65945;53.148;17.956;2023-10-09T00:50:03;101836.98;;;1.69;76.29
77011;BME280;65945;53.148;17.956;2023-10-09T00:52:45;101837.00;;;1.71;76.50
77011;BME280;65945;53.148;17.956;2023-10-09T00:55:21;101829.61;;;1.73;76.61
77011;BME280;65945;53.148;17.956;2023-10-09T00:57:55;101822.48;;;1.75;76.34
77011;BME280;65945;53.148;17.956;2023-10-09T01:00:26;101822.48;;;1.77;76.49
77011;BME280;65945;53.148;17.956;2023-10-09T01:03:02;101816.21;;;1.78;76.31
77011;BME280;65945;53.148;17.956;2023-10-09T01:05:56;101815.84;;;1.81;76.47
77011;BME280;65945;53.148;17.956;2023-10-09T01:08:29;101817.06;;;1.83;76.48
77011;BME280;65945;53.148;17.956;2023-10-09T01:10:59;101818.59;;;1.83;76.24
77011;BME280;65945;53.148;17.956;2023-10-09T01:13:49;101813.58;;;1.84;76.34
77011;BME280;65945;53.148;17.956;2023-10-09T01:16:22;101803.92;;;1.84;76.36
77011;BME280;65945;53.148;17.956;2023-10-09T01:18:54;101799.91;;;1.84;76.17
77011;BME280;65945;53.148;17.956;2023-10-09T01:21:25;101796.59;;;1.82;76.16
77011;BME280;65945;53.148;17.956;2023-10-09T01:23:53;101791.53;;;1.82;76.13
77011;BME280;65945;53.148;17.956;2023-10-09T01:26:32;101795.84;;;1.83;76.59
77011;BME280;65945;53.148;17.956;2023-10-09T01:29:01;101802.02;;;1.82;76.44
77011;BME280;65945;53.148;17.956;2023-10-09T01:31:28;101809.77;;;1.79;76.69
77011;BME280;65945;53.148;17.956;2023-10-09T01:34:10;101815.15;;;1.80;76.65
77011;BME280;65945;53.148;17.956;2023-10-09T01:36:39;101814.27;;;1.80;76.65
77011;BME280;65945;53.148;17.956;2023-10-09T01:39:06;101815.90;;;1.80;76.59
77011;BME280;65945;53.148;17.956;2023-10-09T01:41:36;101813.10;;;1.81;76.52
77011;BME280;65945;53.148;17.956;2023-10-09T01:44:13;101812.43;;;1.81;76.72
77011;BME280;65945;53.148;17.956;2023-10-09T01:46:42;101811.41;;;1.82;76.68
77011;BME280;65945;53.148;17.956;2023-10-09T01:49:13;101811.46;;;1.82;76.86
77011;BME280;65945;53.148;17.956;2023-10-09T01:51:49;101806.14;;;1.82;76.76
77011;BME280;65945;53.148;17.956;2023-10-09T01:54:17;101807.14;;;1.84;76.73
77011;BME280;65945;53.148;17.956;2023-10-09T01:57:00;101810.99;;;1.83;76.82
77011;BME280;65945;53.148;17.956;2023-10-09T01:59:36;101805.61;;;1.82;76.71
77011;BME280;65945;53.148;17.956;2023-10-09T02:02:05;101807.77;;;1.82;76.64
77011;BME280;65945;53.148;17.956;2023-10-09T02:04:58;101803.39;;;1.82;76.61
77011;BME280;65945;53.148;17.956;2023-10-09T02:07:51;101799.02;;;1.82;76.95
77011;BME280;65945;53.148;17.956;2023-10-09T02:10:22;101792.68;;;1.80;76.96
77011;BME280;65945;53.148;17.956;2023-10-09T02:12:53;101793.58;;;1.77;76.87
77011;BME280;65945;53.148;17.956;2023-10-09T02:15:26;101796.27;;;1.76;76.87
77011;BME280;65945;53.148;17.956;2023-10-09T02:18:16;101795.59;;;1.76;77.03
77011;BME280;65945;53.148;17.956;2023-10-09T02:20:44;101788.46;;;1.77;76.98
77011;BME280;65945;53.148;17.956;2023-10-09T02:23:21;101780.98;;;1.78;76.93
77011;BME280;65945;53.148;17.956;2023-10-09T02:25:57;101783.98;;;1.81;77.15
77011;BME280;65945;53.148;17.956;2023-10-09T02:28:24;101776.58;;;1.83;77.09
77011;BME280;65945;53.148;17.956;2023-10-09T02:30:50;101763.88;;;1.86;77.20
77011;BME280;65945;53.148;17.956;2023-10-09T02:33:17;101761.77;;;1.91;77.06
77011;BME280;65945;53.148;17.956;2023-10-09T02:35:54;101759.11;;;1.98;77.06
77011;BME280;65945;53.148;17.956;2023-10-09T02:38:21;101751.05;;;2.04;76.94
77011;BME280;65945;53.148;17.956;2023-10-09T02:40:50;101742.48;;;2.10;76.84
77011;BME280;65945;53.148;17.956;2023-10-09T02:43:32;101733.02;;;2.14;76.75
77011;BME280;65945;53.148;17.956;2023-10-09T02:46:12;101731.52;;;2.20;76.81
77011;BME280;65945;53.148;17.956;2023-10-09T02:48:46;101722.08;;;2.23;76.87
77011;BME280;65945;53.148;17.956;2023-10-09T02:51:20;101719.58;;;2.27;76.92
77011;BME280;65945;53.148;17.956;2023-10-09T02:54:00;101718.04;;;2.31;76.84
77011;BME280;65945;53.148;17.956;2023-10-09T02:56:48;101716.18;;;2.34;76.96
77011;BME280;65945;53.148;17.956;2023-10-09T02:59:44;101716.23;;;2.32;76.93
77011;BME280;65945;53.148;17.956;2023-10-09T03:02:11;101711.92;;;2.27;77.01
77011;BME280;65945;53.148;17.956;2023-10-09T03:04:38;101712.94;;;2.21;77.01
77011;BME280;65945;53.148;17.956;2023-10-09T03:07:05;101711.63;;;2.19;77.03
77011;BME280;65945;53.148;17.956;2023-10-09T03:09:33;101715.27;;;2.19;77.16
77011;BME280;65945;53.148;17.956;2023-10-09T03:12:03;101717.49;;;2.19;77.05
77011;BME280;65945;53.148;17.956;2023-10-09T03:14:33;101706.78;;;2.15;77.31
77011;BME280;65945;53.148;17.956;2023-10-09T03:17:02;101701.30;;;2.14;77.01
77011;BME280;65945;53.148;17.956;2023-10-09T03:19:30;101696.39;;;2.16;77.21
77011;BME280;65945;53.148;17.956;2023-10-09T03:21:57;101686.66;;;2.19;77.30
77011;BME280;65945;53.148;17.956;2023-10-09T03:24:26;101675.62;;;2.19;77.21
77011;BME280;65945;53.148;17.956;2023-10-09T03:27:00;101674.31;;;2.20;77.23
77011;BME280;65945;53.148;17.956;2023-10-09T03:29:27;101666.86;;;2.21;77.49
77011;BME280;65945;53.148;17.956;2023-10-09T03:31:56;101666.44;;;2.20;77.59
77011;BME280;65945;53.148;17.956;2023-10-09T03:34:23;101664.86;;;2.20;77.46
77011;BME280;65945;53.148;17.956;2023-10-09T03:36:50;101665.64;;;2.23;77.60
77011;BME280;65945;53.148;17.956;2023-10-09T03:39:26;101657.38;;;2.27;77.47
77011;BME280;65945;53.148;17.956;2023-10-09T03:42:05;101656.42;;;2.31;77.47
77011;BME280;65945;53.148;17.956;2023-10-09T03:44:32;101649.81;;;2.33;77.44
77011;BME280;65945;53.148;17.956;2023-10-09T03:47:00;101641.40;;;2.35;77.48
77011;BME280;65945;53.148;17.956;2023-10-09T03:49:28;101634.05;;;2.38;77.48
77011;BME280;65945;53.148;17.956;2023-10-09T03:51:55;101623.84;;;2.40;77.44
77011;BME280;65945;53.148;17.956;2023-10-09T03:54:22;101622.54;;;2.39;77.45
77011;BME280;65945;53.148;17.956;2023-10-09T03:56:50;101622.12;;;2.38;77.66
77011;BME280;65945;53.148;17.956;2023-10-09T03:59:17;101629.54;;;2.34;77.92
77011;BME280;65945;53.148;17.956;2023-10-09T04:01:47;101630.18;;;2.30;77.92
77011;BME280;65945;53.148;17.956;2023-10-09T04:04:15;101620.48;;;2.27;77.95
77011;BME280;65945;53.148;17.956;2023-10-09T04:06:42;101624.45;;;2.26;77.99
77011;BME280;65945;53.148;17.956;2023-10-09T04:09:11;101613.73;;;2.28;78.02
77011;BME280;65945;53.148;17.956;2023-10-09T04:11:44;101610.06;;;2.30;78.00
77011;BME280;65945;53.148;17.956;2023-10-09T04:14:13;101613.65;;;2.32;78.06
77011;BME280;65945;53.148;17.956;2023-10-09T04:16:50;101615.59;;;2.34;77.92
77011;BME280;65945;53.148;17.956;2023-10-09T04:19:52;101607.34;;;2.36;77.98
77011;BME280;65945;53.148;17.956;2023-10-09T04:22:38;101601.41;;;2.38;78.01
77011;BME280;65945;53.148;17.956;2023-10-09T04:25:08;101600.52;;;2.40;78.05
77011;BME280;65945;53.148;17.956;2023-10-09T04:27:41;101602.91;;;2.44;78.14
77011;BME280;65945;53.148;17.956;2023-10-09T04:30:08;101596.11;;;2.43;78.28
77011;BME280;65945;53.148;17.956;2023-10-09T04:32:42;101589.95;;;2.39;78.28
77011;BME280;65945;53.148;17.956;2023-10-09T04:35:11;101594.59;;;2.34;78.46
77011;BME280;65945;53.148;17.956;2023-10-09T04:37:50;101591.91;;;2.30;78.33
77011;BME280;65945;53.148;17.956;2023-10-09T04:40:29;101584.89;;;2.29;78.45
77011;BME280;65945;53.148;17.956;2023-10-09T04:43:16;101578.48;;;2.33;78.58
77011;BME280;65945;53.148;17.956;2023-10-09T04:45:49;101574.44;;;2.38;78.54
77011;BME280;65945;53.148;17.956;2023-10-09T04:48:38;101579.00;;;2.43;78.50
77011;BME280;65945;53.148;17.956;2023-10-09T04:51:05;101574.02;;;2.46;78.73
77011;BME280;65945;53.148;17.956;2023-10-09T04:53:48;101572.80;;;2.46;78.77
77011;BME280;65945;53.148;17.956;2023-10-09T04:56:37;101570.50;;;2.44;78.88
77011;BME280;65945;53.148;17.956;2023-10-09T04:59:21;101569.77;;;2.41;78.84
77011;BME280;65945;53.148;17.956;2023-10-09T05:01:51;101569.66;;;2.42;78.82
77011;BME280;65945;53.148;17.956;2023-10-09T05:04:25;101563.16;;;2.43;78.94
77011;BME280;65945;53.148;17.956;2023-10-09T05:07:06;101562.30;;;2.45;78.97
77011;BME280;65945;53.148;17.956;2023-10-09T05:10:11;101554.78;;;2.48;79.20
77011;BME280;65945;53.148;17.956;2023-10-09T05:12:43;101559.19;;;2.52;79.20
77011;BME280;65945;53.148;17.956;2023-10-09T05:15:14;101556.52;;;2.57;79.25
77011;BME280;65945;53.148;17.956;2023-10-09T05:17:41;101551.32;;;2.61;79.18
77011;BME280;65945;53.148;17.956;2023-10-09T05:20:18;101553.60;;;2.67;79.10
77011;BME280;65945;53.148;17.956;2023-10-09T05:22:53;101551.60;;;2.72;79.20
77011;BME280;65945;53.148;17.956;2023-10-09T05:25:46;101552.09;;;2.77;78.89
77011;BME280;65945;53.148;17.956;2023-10-09T05:28:25;101549.96;;;2.81;79.14
77011;BME280;65945;53.148;17.956;2023-10-09T05:31:12;101548.31;;;2.81;79.09
77011;BME280;65945;53.148;17.956;2023-10-09T05:33:58;101550.14;;;2.77;79.28
77011;BME280;65945;53.148;17.956;2023-10-09T05:36:27;101548.05;;;2.75;79.39
77011;BME280;65945;53.148;17.956;2023-10-09T05:38:54;101548.63;;;2.75;79.43
77011;BME280;65945;53.148;17.956;2023-10-09T05:41:45;101550.25;;;2.77;79.37
77011;BME280;65945;53.148;17.956;2023-10-09T05:44:14;101548.08;;;2.82;79.16
77011;BME280;65945;53.148;17.956;2023-10-09T05:47:00;101548.68;;;2.88;79.35
77011;BME280;65945;53.148;17.956;2023-10-09T05:49:45;101544.83;;;2.94;79.38
77011;BME280;65945;53.148;17.956;2023-10-09T05:52:30;101546.42;;;2.98;79.47
77011;BME280;65945;53.148;17.956;2023-10-09T05:55:06;101539.05;;;3.02;79.55
77011;BME280;65945;53.148;17.956;2023-10-09T05:57:52;101533.60;;;3.08;79.53
77011;BME280;65945;53.148;17.956;2023-10-09T06:00:37;101526.15;;;3.13;79.58
77011;BME280;65945;53.148;17.956;2023-10-09T06:03:22;101527.56;;;3.20;79.54
77011;BME280;65945;53.148;17.956;2023-10-09T06:05:54;101518.20;;;3.26;79.81
77011;BME280;65945;53.148;17.956;2023-10-09T06:08:29;101520.28;;;3.33;79.48
77011;BME280;65945;53.148;17.956;2023-10-09T06:11:09;101527.77;;;3.40;79.52
77011;BME280;65945;53.148;17.956;2023-10-09T06:13:55;101538.11;;;3.47;79.28
77011;BME280;65945;53.148;17.956;2023-10-09T06:19:12;101547.31;;;3.58;79.74
77011;BME280;65945;53.148;17.956;2023-10-09T06:21:53;101548.14;;;3.60;79.45
77011;BME280;65945;53.148;17.956;2023-10-09T06:24:30;101545.47;;;3.62;79.31
77011;BME280;65945;53.148;17.956;2023-10-09T06:27:04;101545.58;;;3.67;79.27
77011;BME280;65945;53.148;17.956;2023-10-09T06:29:31;101544.25;;;3.72;79.22
77011;BME280;65945;53.148;17.956;2023-10-09T06:32:11;101546.62;;;3.77;79.10
77011;BME280;65945;53.148;17.956;2023-10-09T06:34:57;101543.65;;;3.82;78.95
77011;BME280;65945;53.148;17.956;2023-10-09T06:37:48;101539.17;;;3.89;78.74
77011;BME280;65945;53.148;17.956;2023-10-09T06:40:39;101529.20;;;3.98;78.76
77011;BME280;65945;53.148;17.956;2023-10-09T06:43:19;101528.16;;;4.09;78.65
77011;BME280;65945;53.148;17.956;2023-10-09T06:48:52;101536.98;;;4.26;78.46
77011;BME280;65945;53.148;17.956;2023-10-09T06:51:26;101542.77;;;4.33;78.46
77011;BME280;65945;53.148;17.956;2023-10-09T06:53:56;101546.29;;;4.38;78.25
77011;BME280;65945;53.148;17.956;2023-10-09T06:56:27;101552.86;;;4.46;78.29
77011;BME280;65945;53.148;17.956;2023-10-09T06:59:02;101560.75;;;4.53;78.07
77011;BME280;65945;53.148;17.956;2023-10-09T07:01:43;101563.09;;;4.56;78.45
77011;BME280;65945;53.148;17.956;2023-10-09T07:04:11;101563.12;;;4.62;78.09
77011;BME280;65945;53.148;17.956;2023-10-09T07:06:57;101558.84;;;4.71;78.20
77011;BME280;65945;53.148;17.956;2023-10-09T07:09:23;101551.45;;;4.78;78.02
77011;BME280;65945;53.148;17.956;2023-10-09T07:11:54;101546.13;;;4.86;78.16
77011;BME280;65945;53.148;17.956;2023-10-09T07:14:22;101546.67;;;4.96;78.11
77011;BME280;65945;53.148;17.956;2023-10-09T07:19:49;101548.20;;;5.21;77.40
77011;BME280;65945;53.148;17.956;2023-10-09T07:22:16;101543.63;;;5.33;76.86
77011;BME280;65945;53.148;17.956;2023-10-09T07:27:39;101532.46;;;5.62;75.97
77011;BME280;65945;53.148;17.956;2023-10-09T07:30:15;101532.30;;;5.73;75.85
77011;BME280;65945;53.148;17.956;2023-10-09T07:35:33;101550.21;;;5.99;75.76
77011;BME280;65945;53.148;17.956;2023-10-09T07:38:11;101549.15;;;6.12;75.52
77011;BME280;65945;53.148;17.956;2023-10-09T07:40:38;101541.33;;;6.23;75.15
77011;BME280;65945;53.148;17.956;2023-10-09T07:43:25;101542.25;;;6.33;74.88
77011;BME280;65945;53.148;17.956;2023-10-09T07:45:55;101547.35;;;6.40;74.22
77011;BME280;65945;53.148;17.956;2023-10-09T07:48:25;101548.70;;;6.44;74.11
77011;BME280;65945;53.148;17.956;2023-10-09T07:51:11;101557.03;;;6.49;73.92
77011;BME280;65945;53.148;17.956;2023-10-09T07:53:38;101559.78;;;6.57;73.60
77011;BME280;65945;53.148;17.956;2023-10-09T07:56:11;101562.84;;;6.65;73.60
77011;BME280;65945;53.148;17.956;2023-10-09T07:58:40;101559.34;;;6.74;73.13
77011;BME280;65945;53.148;17.956;2023-10-09T08:01:16;101562.05;;;6.83;73.25
77011;BME280;65945;53.148;17.956;2023-10-09T08:03:49;101557.66;;;6.93;72.69
77011;BME280;65945;53.148;17.956;2023-10-09T08:06:28;101553.34;;;7.04;72.56
77011;BME280;65945;53.148;17.956;2023-10-09T08:09:11;101553.96;;;7.14;72.15
77011;BME280;65945;53.148;17.956;2023-10-09T08:11:42;101556.17;;;7.22;72.25
77011;BME280;65945;53.148;17.956;2023-10-09T08:14:12;101555.19;;;7.29;72.06
77011;BME280;65945;53.148;17.956;2023-10-09T08:16:58;101556.84;;;7.37;71.68
77011;BME280;65945;53.148;17.956;2023-10-09T08:19:46;101544.72;;;7.42;71.54
77011;BME280;65945;53.148;17.956;2023-10-09T08:22:26;101540.45;;;7.49;71.48
77011;BME280;65945;53.148;17.956;2023-10-09T08:24:53;101539.40;;;7.55;71.29
77011;BME280;65945;53.148;17.956;2023-10-09T08:27:27;101532.42;;;7.62;71.32
77011;BME280;65945;53.148;17.956;2023-10-09T08:30:13;101525.99;;;7.71;71.22
77011;BME280;65945;53.148;17.956;2023-10-09T08:32:39;101522.50;;;7.77;71.06
77011;BME280;65945;53.148;17.956;2023-10-09T08:35:09;101519.98;;;7.86;71.14
77011;BME280;65945;53.148;17.956;2023-10-09T08:37:59;101519.80;;;7.95;70.72
77011;BME280;65945;53.148;17.956;2023-10-09T08:40:33;101523.90;;;8.05;70.07
77011;BME280;65945;53.148;17.956;2023-10-09T08:43:13;101516.08;;;8.11;70.00
77011;BME280;65945;53.148;17.956;2023-10-09T08:45:53;101514.98;;;8.19;69.95
77011;BME280;65945;53.148;17.956;2023-10-09T08:48:20;101503.14;;;8.28;69.77
77011;BME280;65945;53.148;17.956;2023-10-09T08:50:53;101496.50;;;8.36;69.69
77011;BME280;65945;53.148;17.956;2023-10-09T08:53:22;101501.42;;;8.46;69.50
77011;BME280;65945;53.148;17.956;2023-10-09T08:55:50;101503.20;;;8.55;69.05
77011;BME280;65945;53.148;17.956;2023-10-09T08:58:18;101501.66;;;8.65;68.86
77011;BME280;65945;53.148;17.956;2023-10-09T09:00:47;101499.83;;;8.74;68.61
77011;BME280;65945;53.148;17.956;2023-10-09T09:03:15;101499.13;;;8.81;68.09
77011;BME280;65945;53.148;17.956;2023-10-09T09:05:45;101498.79;;;8.87;68.03
77011;BME280;65945;53.148;17.956;2023-10-09T09:08:24;101490.84;;;8.94;68.06
77011;BME280;65945;53.148;17.956;2023-10-09T09:11:03;101492.79;;;9.00;67.75
77011;BME280;65945;53.148;17.956;2023-10-09T09:16:21;101491.93;;;9.15;67.63
77011;BME280;65945;53.148;17.956;2023-10-09T09:21:28;101491.52;;;9.29;67.01
77011;BME280;65945;53.148;17.956;2023-10-09T09:26:44;101490.77;;;9.37;66.86
77011;BME280;65945;53.148;17.956;2023-10-09T09:29:14;101481.97;;;9.44;67.19
77011;BME280;65945;53.148;17.956;2023-10-09T09:31:55;101481.80;;;9.51;66.97
77011;BME280;65945;53.148;17.956;2023-10-09T09:34:50;101483.41;;;9.61;66.93
77011;BME280;65945;53.148;17.956;2023-10-09T09:37:22;101477.46;;;9.73;65.81
77011;BME280;65945;53.148;17.956;2023-10-09T09:39:57;101477.15;;;9.73;64.93
77011;BME280;65945;53.148;17.956;2023-10-09T09:42:24;101479.94;;;9.72;65.01
77011;BME280;65945;53.148;17.956;2023-10-09T09:44:52;101478.39;;;9.71;65.44
77011;BME280;65945;53.148;17.956;2023-10-09T09:47:20;101478.30;;;9.77;65.71
77011;BME280;65945;53.148;17.956;2023-10-09T09:49:57;101477.70;;;9.85;65.65
77011;BME280;65945;53.148;17.956;2023-10-09T09:52:30;101475.88;;;9.95;65.66
77011;BME280;65945;53.148;17.956;2023-10-09T09:55:07;101474.56;;;10.06;65.10
77011;BME280;65945;53.148;17.956;2023-10-09T09:57:47;101475.15;;;10.15;64.73
77011;BME280;65945;53.148;17.956;2023-10-09T10:00:20;101470.79;;;10.21;64.31
77011;BME280;65945;53.148;17.956;2023-10-09T10:03:02;101466.61;;;10.25;64.59
77011;BME280;65945;53.148;17.956;2023-10-09T10:05:32;101468.99;;;10.34;64.47
77011;BME280;65945;53.148;17.956;2023-10-09T10:08:00;101474.63;;;10.44;64.62
77011;BME280;65945;53.148;17.956;2023-10-09T10:13:06;101476.61;;;10.64;62.97
77011;BME280;65945;53.148;17.956;2023-10-09T10:16:11;101474.15;;;10.63;63.00
77011;BME280;65945;53.148;17.956;2023-10-09T10:18:53;101468.23;;;10.63;63.31
77011;BME280;65945;53.148;17.956;2023-10-09T10:21:27;101463.59;;;10.69;63.57
77011;BME280;65945;53.148;17.956;2023-10-09T10:32:53;101447.66;;;10.85;62.95
77011;BME280;65945;53.148;17.956;2023-10-09T10:35:21;101447.70;;;10.90;62.73
77011;BME280;65945;53.148;17.956;2023-10-09T10:38:30;101454.08;;;10.91;62.70
77011;BME280;65945;53.148;17.956;2023-10-09T10:41:14;101455.45;;;10.98;62.70
77011;BME280;65945;53.148;17.956;2023-10-09T10:43:45;101457.50;;;11.05;62.32
77011;BME280;65945;53.148;17.956;2023-10-09T10:46:22;101452.42;;;11.11;62.56
77011;BME280;65945;53.148;17.956;2023-10-09T10:49:06;101446.54;;;11.18;62.04
77011;BME280;65945;53.148;17.956;2023-10-09T10:51:53;101443.84;;;11.27;61.93
77011;BME280;65945;53.148;17.956;2023-10-09T10:54:41;101436.71;;;11.37;61.91
77011;BME280;65945;53.148;17.956;2023-10-09T10:57:21;101442.05;;;11.46;61.91
77011;BME280;65945;53.148;17.956;2023-10-09T11:00:11;101442.44;;;11.54;61.73
77011;BME280;65945;53.148;17.956;2023-10-09T11:03:00;101438.14;;;11.61;61.48
77011;BME280;65945;53.148;17.956;2023-10-09T11:05:43;101436.90;;;11.63;60.62
77011;BME280;65945;53.148;17.956;2023-10-09T11:08:18;101433.11;;;11.62;60.54
77011;BME280;65945;53.148;17.956;2023-10-09T11:10:50;101426.79;;;11.64;59.38
77011;BME280;65945;53.148;17.956;2023-10-09T11:13:21;101422.61;;;11.70;60.36
77011;BME280;65945;53.148;17.956;2023-10-09T11:15:57;101419.98;;;11.85;59.86
77011;BME280;65945;53.148;17.956;2023-10-09T11:18:41;101414.07;;;12.01;60.31
77011;BME280;65945;53.148;17.956;2023-10-09T11:21:14;101408.40;;;12.09;59.16
77011;BME280;65945;53.148;17.956;2023-10-09T11:23:42;101405.56;;;12.12;60.03
77011;BME280;65945;53.148;17.956;2023-10-09T11:26:25;101408.13;;;12.19;58.97
77011;BME280;65945;53.148;17.956;2023-10-09T11:32:05;101408.58;;;12.22;57.55
77011;BME280;65945;53.148;17.956;2023-10-09T11:34:33;101410.08;;;12.18;57.82
77011;BME280;65945;53.148;17.956;2023-10-09T11:37:16;101404.14;;;12.16;57.69
77011;BME280;65945;53.148;17.956;2023-10-09T11:39:42;101409.85;;;12.18;58.35
77011;BME280;65945;53.148;17.956;2023-10-09T11:42:27;101417.13;;;12.23;58.39
77011;BME280;65945;53.148;17.956;2023-10-09T11:45:22;101415.98;;;12.28;58.58
77011;BME280;65945;53.148;17.956;2023-10-09T11:47:52;101411.06;;;12.37;58.75
77011;BME280;65945;53.148;17.956;2023-10-09T11:50:52;101408.08;;;12.49;58.66
77011;BME280;65945;53.148;17.956;2023-10-09T11:53:41;101407.71;;;12.58;58.77
77011;BME280;65945;53.148;17.956;2023-10-09T11:56:09;101404.77;;;12.63;57.34
77011;BME280;65945;53.148;17.956;2023-10-09T11:58:40;101400.26;;;12.60;57.45
77011;BME280;65945;53.148;17.956;2023-10-09T12:01:12;101402.80;;;12.61;57.59
77011;BME280;65945;53.148;17.956;2023-10-09T12:03:50;101397.70;;;12.63;56.78
77011;BME280;65945;53.148;17.956;2023-10-09T12:06:19;101399.96;;;12.65;57.31
77011;BME280;65945;53.148;17.956;2023-10-09T12:08:49;101393.30;;;12.67;57.14
77011;BME280;65945;53.148;17.956;2023-10-09T12:11:16;101390.84;;;12.70;56.74
77011;BME280;65945;53.148;17.956;2023-10-09T12:13:49;101386.84;;;12.76;57.13
77011;BME280;65945;53.148;17.956;2023-10-09T12:16:16;101388.23;;;12.82;57.10
77011;BME280;65945;53.148;17.956;2023-10-09T12:18:43;101386.17;;;12.93;57.03
77011;BME280;65945;53.148;17.956;2023-10-09T12:21:20;101386.30;;;12.98;56.54
77011;BME280;65945;53.148;17.956;2023-10-09T12:23:47;101382.30;;;12.97;55.85
77011;BME280;65945;53.148;17.956;2023-10-09T12:26:13;101378.96;;;12.90;56.07
77011;BME280;65945;53.148;17.956;2023-10-09T12:28:44;101376.13;;;12.87;56.54
77011;BME280;65945;53.148;17.956;2023-10-09T12:31:13;101369.77;;;12.81;56.46
77011;BME280;65945;53.148;17.956;2023-10-09T12:33:41;101365.07;;;12.73;56.62
77011;BME280;65945;53.148;17.956;2023-10-09T12:36:12;101359.77;;;12.70;57.13
77011;BME280;65945;53.148;17.956;2023-10-09T12:38:47;101352.13;;;12.68;57.25
77011;BME280;65945;53.148;17.956;2023-10-09T12:41:19;101355.94;;;12.67;57.08
77011;BME280;65945;53.148;17.956;2023-10-09T12:43:47;101348.79;;;12.63;56.66
77011;BME280;65945;53.148;17.956;2023-10-09T12:46:14;101345.58;;;12.58;56.71
77011;BME280;65945;53.148;17.956;2023-10-09T12:48:45;101345.71;;;12.59;56.53
77011;BME280;65945;53.148;17.956;2023-10-09T12:51:15;101337.41;;;12.62;57.02
77011;BME280;65945;53.148;17.956;2023-10-09T12:53:46;101324.23;;;12.75;57.25
77011;BME280;65945;53.148;17.956;2023-10-09T12:56:15;101324.30;;;12.89;56.80
77011;BME280;65945;53.148;17.956;2023-10-09T12:58:44;101315.71;;;12.92;55.82
77011;BME280;65945;53.148;17.956;2023-10-09T13:01:18;101319.61;;;12.91;55.66
77011;BME280;65945;53.148;17.956;2023-10-09T13:03:46;101318.77;;;12.85;55.41
77011;BME280;65945;53.148;17.956;2023-10-09T13:06:16;101317.83;;;12.77;55.64
77011;BME280;65945;53.148;17.956;2023-10-09T13:08:50;101310.83;;;12.73;55.95
77011;BME280;65945;53.148;17.956;2023-10-09T13:11:18;101317.73;;;12.63;55.76
77011;BME280;65945;53.148;17.956;2023-10-09T13:13:47;101322.86;;;12.48;56.07
77011;BME280;65945;53.148;17.956;2023-10-09T13:16:20;101318.54;;;12.37;56.65
77011;BME280;65945;53.148;17.956;2023-10-09T13:18:54;101308.98;;;12.35;56.69
77011;BME280;65945;53.148;17.956;2023-10-09T13:21:25;101303.02;;;12.36;56.97
77011;BME280;65945;53.148;17.956;2023-10-09T13:23:53;101307.80;;;12.40;57.18
77011;BME280;65945;53.148;17.956;2023-10-09T13:26:24;101312.14;;;12.47;56.92
77011;BME280;65945;53.148;17.956;2023-10-09T13:28:58;101305.60;;;12.56;57.14
77011;BME280;65945;53.148;17.956;2023-10-09T13:31:25;101304.78;;;12.64;56.40
77011;BME280;65945;53.148;17.956;2023-10-09T13:33:53;101304.46;;;12.66;55.97
77011;BME280;65945;53.148;17.956;2023-10-09T13:36:26;101310.05;;;12.73;55.30
77011;BME280;65945;53.148;17.956;2023-10-09T13:39:02;101310.63;;;12.80;55.55
77011;BME280;65945;53.148;17.956;2023-10-09T13:41:48;101309.45;;;12.89;55.90
77011;BME280;65945;53.148;17.956;2023-10-09T13:44:15;101311.02;;;13.00;56.41
77011;BME280;65945;53.148;17.956;2023-10-09T13:46:42;101311.23;;;13.16;55.64
77011;BME280;65945;53.148;17.956;2023-10-09T13:49:10;101305.23;;;13.19;55.52
77011;BME280;65945;53.148;17.956;2023-10-09T13:51:41;101305.21;;;13.18;55.47
77011;BME280;65945;53.148;17.956;2023-10-09T13:54:11;101309.42;;;13.10;55.53
77011;BME280;65945;53.148;17.956;2023-10-09T13:56:49;101310.42;;;13.04;55.55
77011;BME280;65945;53.148;17.956;2023-10-09T13:59:22;101309.41;;;12.94;55.14
77011;BME280;65945;53.148;17.956;2023-10-09T14:01:55;101308.26;;;12.81;55.40
77011;BME280;65945;53.148;17.956;2023-10-09T14:04:22;101309.25;;;12.68;55.51